Messwerte Zunzgen

Temperatur

Temperatur
°C
1545051600 14.00 14.00 5.1
1545055200 15.00 15.00 5.7
1545058800 16.00 16.00 5.8
1545062400 17.00 17.00 5.5
1545066000 18.00 18.00 5.0
1545069600 19.00 19.00 4.5
1545073200 20.00 20.00 4.1
1545076800 21.00 21.00 3.7
1545080400 22.00 22.00 2.2
1545084000 23.00 23.00 1.1
1545087600 0.00 0.00 0.5
1545091200 1.00 1.00
1545094800 2.00 2.00
1545098400 3.00 3.00
1545102000 4.00 4.00
1545105600 5.00 5.00
1545109200 6.00 6.00
1545112800 7.00 7.00
1545116400 8.00 8.00
1545120000 9.00 9.00
1545123600 10.00 10.00
1545127200 11.00 11.00
1545130800 12.00 12.00 2.4
1545134400 13.00 13.00 3.0

Wir danken unserem Partner: Zunzgen / Imbeck

Aktuellste Messwerte

Temperatur
3.3 °C
Feuchtigkeit
86 %
Wind
5 km/hWindrichtung: Nordost
Böen
15 km/h
Niederschlag
0.0 mm
Luftdruck
1022.0 hPa
Messzeit: 18. Dezember 2018, 14.00Datenquelle: MeteoNews Partner, Zunzgen / Imbeck

Weitere Messstationen in der Nähe

Messstation Temperatur Entfernung
Zunzgen-Steinenweg 3.6 °C 0 km
Känerkinden 2.1 °C 5 km
Liestal 5.8 °C 6 km
Häfelfingen 2.8 °C 6 km
Rünenberg 1.4 °C 6 km
Pratteln 4.6 °C 11 km
Oltingen -1.4 °C 12 km

Niederschlag

Niederschlagsmenge
mm
1545051600 14.00 13.00 - 14.00 0.0
1545055200 15.00 14.00 - 15.00 0.0
1545058800 16.00 15.00 - 16.00 0.0
1545062400 17.00 16.00 - 17.00 0.0
1545066000 18.00 17.00 - 18.00 0.0
1545069600 19.00 18.00 - 19.00 0.0
1545073200 20.00 19.00 - 20.00 0.0
1545076800 21.00 20.00 - 21.00 0.0
1545080400 22.00 21.00 - 22.00 0.0
1545084000 23.00 22.00 - 23.00 0.0
1545087600 0.00 23.00 - 0.00 0.0
1545091200 1.00 0.00 - 1.00
1545094800 2.00 1.00 - 2.00
1545098400 3.00 2.00 - 3.00
1545102000 4.00 3.00 - 4.00
1545105600 5.00 4.00 - 5.00
1545109200 6.00 5.00 - 6.00
1545112800 7.00 6.00 - 7.00
1545116400 8.00 7.00 - 8.00
1545120000 9.00 8.00 - 9.00
1545123600 10.00 9.00 - 10.00
1545127200 11.00 10.00 - 11.00
1545130800 12.00 11.00 - 12.00
1545134400 13.00 12.00 - 13.00 0.0

Wind

Windrichtung Böen Mittelwind
° km/h km/h
1545051600 14.00 13.00 - 14.00 160° 5 0
1545055200 15.00 14.00 - 15.00 180° 7 1
1545058800 16.00 15.00 - 16.00 200° 10 1
1545062400 17.00 16.00 - 17.00 200° 3 0
1545066000 18.00 17.00 - 18.00 200° 3 0
1545069600 19.00 18.00 - 19.00 200° 3 0
1545073200 20.00 19.00 - 20.00 200° 3 0
1545076800 21.00 20.00 - 21.00 200° 3 0
1545080400 22.00 21.00 - 22.00 200° 3 0
1545084000 23.00 22.00 - 23.00 200° 3 0
1545087600 0.00 23.00 - 0.00 200° 3 1
1545091200 1.00 0.00 - 1.00
1545094800 2.00 1.00 - 2.00
1545098400 3.00 2.00 - 3.00
1545102000 4.00 3.00 - 4.00
1545105600 5.00 4.00 - 5.00
1545109200 6.00 5.00 - 6.00
1545112800 7.00 6.00 - 7.00
1545116400 8.00 7.00 - 8.00
1545120000 9.00 8.00 - 9.00
1545123600 10.00 9.00 - 10.00
1545127200 11.00 10.00 - 11.00
1545130800 12.00 11.00 - 12.00 70° 10 3
1545134400 13.00 12.00 - 13.00 50° 15 4

Ihre Wetterstation

Fehlt Ihre Wetterstation auf unserem Portal?

Schreiben Sie an network@meteonews.ch

Klima

Wann ist es am wärmsten? Wann regnet es am wenigsten? Unsere Klimadaten geben Auskunft.